Time;durP1;ratioP1;P1;durP2;ratioP2;P2;SDS_P1;SDS_P2;PMS_P1;PMS_P2;Temp;Humidity;BMP_temperature;BMP_pressure;BME280_temperature;BME280_humidity;BME280_pressure;Samples;Min_cycle;Max_cycle;Signal;HPM_P1;HPM_P2
2021/09/04 00:08:04;;;;;;;10.13;6.27;;;13.70;99.90;;;;;;20825979;28;20447;-76
2021/09/04 00:18:05;;;;;;;10.57;6.30;;;13.70;99.90;;;;;;20824955;28;20033;-78
2021/09/04 00:28:06;;;;;;;8.83;6.43;;;13.50;99.90;;;;;;20810111;28;20510;-79
2021/09/04 00:38:06;;;;;;;12.13;6.20;;;13.40;99.90;;;;;;20827638;28;20037;-78
2021/09/04 00:48:08;;;;;;;11.13;5.30;;;13.40;99.90;;;;;;20855470;28;20117;-80
2021/09/04 00:58:09;;;;;;;9.67;6.00;;;13.30;99.90;;;;;;20872770;28;20091;-78
2021/09/04 01:08:10;;;;;;;10.73;6.80;;;13.30;99.90;;;;;;20864233;28;20029;-79
2021/09/04 01:18:12;;;;;;;10.93;6.05;;;13.10;99.90;;;;;;20868102;28;20029;-78
2021/09/04 01:28:13;;;;;;;11.50;6.07;;;13.10;99.90;;;;;;20876124;28;20040;-80
2021/09/04 01:38:14;;;;;;;9.93;6.63;;;13.00;99.90;;;;;;20808028;28;20041;-79
2021/09/04 01:48:15;;;;;;;11.80;7.63;;;12.90;99.90;;;;;;20833611;28;20033;-78
2021/09/04 01:58:16;;;;;;;11.80;7.40;;;12.60;99.90;;;;;;20834519;28;20524;-78
2021/09/04 02:08:16;;;;;;;10.70;6.07;;;12.70;99.90;;;;;;20854272;28;20533;-79
2021/09/04 02:18:20;;;;;;;10.53;6.50;;;12.80;99.90;;;;;;20842298;28;20033;-79
2021/09/04 02:28:23;;;;;;;11.07;6.25;;;12.60;99.90;;;;;;20810291;28;20120;-78
2021/09/04 02:38:24;;;;;;;9.93;6.30;;;12.50;99.90;;;;;;20842506;28;20030;-78
2021/09/04 02:48:26;;;;;;;;;;;12.50;99.90;;;;;;20844357;28;20056;-80
2021/09/04 02:58:28;;;;;;;11.40;6.50;;;12.20;99.90;;;;;;20825415;28;19909;-78
2021/09/04 03:08:30;;;;;;;10.17;6.27;;;12.50;99.90;;;;;;20841893;28;20028;-77
2021/09/04 03:18:30;;;;;;;;;;;12.50;99.90;;;;;;20851269;28;20030;-79
2021/09/04 03:28:31;;;;;;;12.93;8.40;;;12.50;99.90;;;;;;20839273;28;20023;-79
2021/09/04 03:38:33;;;;;;;18.33;8.90;;;12.60;99.90;;;;;;20819796;28;20029;-78
2021/09/04 03:48:34;;;;;;;19.43;10.47;;;13.00;99.90;;;;;;20838699;28;20104;-80
2021/09/04 03:58:35;;;;;;;22.23;11.03;;;13.10;99.90;;;;;;20837923;28;20091;-81
2021/09/04 04:08:36;;;;;;;16.47;11.23;;;13.10;99.90;;;;;;20837107;28;20029;-81
2021/09/04 04:18:37;;;;;;;11.18;7.00;;;13.00;99.90;;;;;;20837028;28;20045;-79
2021/09/04 04:28:39;;;;;;;18.15;8.10;;;13.10;99.90;;;;;;20838013;28;20112;-81
2021/09/04 04:38:41;;;;;;;20.15;8.48;;;13.10;99.90;;;;;;20839211;28;20662;-81
2021/09/04 04:48:42;;;;;;;15.83;8.33;;;13.10;99.90;;;;;;20842656;28;20031;-81
2021/09/04 04:58:43;;;;;;;13.95;8.70;;;13.00;99.90;;;;;;20854422;28;20036;-78
2021/09/04 05:08:44;;;;;;;13.30;8.23;;;12.90;99.90;;;;;;20847216;28;20089;-78
2021/09/04 05:18:45;;;;;;;17.13;8.00;;;12.80;99.90;;;;;;20835792;28;20037;-76
2021/09/04 05:28:46;;;;;;;13.70;7.83;;;12.90;99.90;;;;;;20835589;28;20033;-79
2021/09/04 05:38:47;;;;;;;12.07;7.87;;;13.00;99.90;;;;;;20852468;28;20030;-78
2021/09/04 05:48:48;;;;;;;11.80;7.40;;;13.30;99.90;;;;;;20850797;28;20035;-80
2021/09/04 05:58:48;;;;;;;12.80;8.50;;;13.70;99.90;;;;;;20848267;28;20121;-78
2021/09/04 06:08:49;;;;;;;12.47;8.17;;;14.20;99.90;;;;;;20858119;28;20503;-80
2021/09/04 06:18:50;;;;;;;12.77;7.83;;;14.60;99.90;;;;;;20849360;28;20025;-78
2021/09/04 06:28:51;;;;;;;11.70;7.33;;;14.90;99.90;;;;;;20852531;28;20041;-78
2021/09/04 06:38:52;;;;;;;14.30;7.73;;;15.50;99.90;;;;;;20850828;28;20033;-81
2021/09/04 06:48:52;;;;;;;13.73;7.30;;;16.30;99.90;;;;;;20847345;28;20044;-80
2021/09/04 06:58:53;;;;;;;15.03;7.50;;;17.10;99.90;;;;;;20846994;28;20384;-77
2021/09/04 07:08:54;;;;;;;19.07;6.87;;;17.60;99.90;;;;;;20846372;28;20472;-77
2021/09/04 07:18:55;;;;;;;13.90;7.27;;;17.80;99.90;;;;;;20846839;28;20116;-78
2021/09/04 07:28:55;;;;;;;12.10;6.87;;;18.30;99.90;;;;;;20806922;28;20057;-79
2021/09/04 07:38:56;;;;;;;13.90;7.43;;;18.70;99.90;;;;;;20839289;28;20100;-77
2021/09/04 07:48:57;;;;;;;10.97;7.03;;;18.80;99.90;;;;;;20835494;28;20025;-79
2021/09/04 07:58:58;;;;;;;14.90;7.20;;;18.60;99.90;;;;;;20833456;28;20045;-79
2021/09/04 08:08:59;;;;;;;10.90;6.67;;;19.40;99.90;;;;;;20836665;28;20391;-79
2021/09/04 08:19:00;;;;;;;11.03;6.97;;;20.10;99.90;;;;;;20851038;22;20072;-76
2021/09/04 08:29:00;;;;;;;18.37;7.90;;;21.10;99.90;;;;;;20888797;28;20040;-76
2021/09/04 08:39:01;;;;;;;14.43;7.37;;;21.70;99.90;;;;;;20905827;28;20040;-76
2021/09/04 08:49:05;;;;;;;11.75;6.97;;;23.20;99.90;;;;;;20887736;28;20037;-76
2021/09/04 08:59:06;;;;;;;13.32;6.30;;;24.10;99.90;;;;;;20905460;28;20035;-76
2021/09/04 09:09:24;;;;;;;13.02;5.43;;;24.50;99.90;;;;;;20903963;28;20124;-76
2021/09/04 09:19:27;;;;;;;9.15;6.25;;;24.20;99.90;;;;;;20899918;28;20037;-76
2021/09/04 09:29:33;;;;;;;13.27;6.03;;;25.80;99.90;;;;;;20886086;28;20025;-76
2021/09/04 09:39:40;;;;;;;8.63;5.97;;;25.50;99.90;;;;;;20903987;28;20025;-76
2021/09/04 09:49:45;;;;;;;9.55;6.30;;;25.20;99.90;;;;;;20903239;28;20029;-76
2021/09/04 09:59:46;;;;;;;7.97;5.57;;;26.70;99.90;;;;;;20916990;28;20087;-76
2021/09/04 10:09:48;;;;;;;8.30;5.88;;;27.50;99.90;;;;;;20917562;28;20029;-76
2021/09/04 10:19:49;;;;;;;6.03;4.55;;;28.60;99.90;;;;;;20916650;28;20032;-76
2021/09/04 10:29:50;;;;;;;9.98;5.15;;;28.60;99.90;;;;;;20898018;28;20057;-76
2021/09/04 10:39:59;;;;;;;9.02;5.78;;;27.00;99.90;;;;;;20914894;28;20028;-77
2021/09/04 10:50:20;;;;;;;8.85;5.40;;;27.80;99.90;;;;;;20895325;28;20394;-76
2021/09/04 11:00:22;;;;;;;;;;;28.40;99.90;;;;;;20892221;28;20056;-77
2021/09/04 11:10:24;;;;;;;7.68;4.88;;;29.20;99.90;;;;;;20891332;28;19978;-76
2021/09/04 11:20:25;;;;;;;8.02;4.90;;;29.20;99.90;;;;;;20885906;28;20478;-77
2021/09/04 11:30:26;;;;;;;10.93;5.15;;;29.50;99.90;;;;;;20873073;28;20041;-77
2021/09/04 11:40:29;;;;;;;10.80;4.95;;;28.10;99.90;;;;;;20890811;28;20159;-77
2021/09/04 11:50:32;;;;;;;5.60;4.15;;;30.30;99.90;;;;;;20887921;28;20574;-77
2021/09/04 12:00:35;;;;;;;6.07;4.53;;;30.60;99.90;;;;;;20889096;28;20545;-77
2021/09/04 12:10:38;;;;;;;8.80;4.57;;;31.20;99.90;;;;;;20884801;28;20029;-76
2021/09/04 12:20:44;;;;;;;5.40;4.22;;;29.70;99.90;;;;;;20887525;28;20051;-76
2021/09/04 12:31:10;;;;;;;7.38;4.07;;;27.50;99.90;;;;;;20884651;28;20032;-77
2021/09/04 12:41:16;;;;;;;6.25;3.67;;;30.30;99.90;;;;;;20928207;28;20043;-77
2021/09/04 12:51:17;;;;;;;4.47;3.30;;;31.10;99.90;;;;;;20969407;28;20040;-77
2021/09/04 13:01:18;;;;;;;5.95;3.60;;;31.10;99.90;;;;;;20968541;28;20041;-76
2021/09/04 13:11:19;;;;;;;4.95;3.75;;;30.80;99.90;;;;;;20968584;28;20028;-76
2021/09/04 13:21:20;;;;;;;4.90;3.37;;;30.10;99.90;;;;;;20967783;28;20037;-76
2021/09/04 13:31:21;;;;;;;5.40;3.65;;;29.20;99.90;;;;;;20978757;28;20337;-76
2021/09/04 13:41:22;;;;;;;6.30;3.65;;;30.20;99.90;;;;;;20939278;28;20035;-76
2021/09/04 13:51:22;;;;;;;5.47;3.25;;;29.10;99.90;;;;;;20899012;28;20029;-76
2021/09/04 14:01:23;;;;;;;8.98;4.47;;;30.40;99.90;;;;;;20898796;28;20778;-76
2021/09/04 14:11:24;;;;;;;8.02;3.70;;;30.30;99.90;;;;;;20897494;28;20186;-75
2021/09/04 14:21:25;;;;;;;;;;;25.30;99.90;;;;;;20875096;28;20029;-74
2021/09/04 14:31:26;;;;;;;5.53;3.10;;;24.20;99.90;;;;;;20815461;22;20495;-79
2021/09/04 14:41:27;;;;;;;4.37;2.30;;;23.80;99.90;;;;;;20789081;28;20026;-80
2021/09/04 14:51:28;;;;;;;6.15;2.58;;;23.50;99.90;;;;;;20825770;28;20057;-78
2021/09/04 15:01:28;;;;;;;5.32;2.70;;;24.30;99.90;;;;;;20824111;28;20037;-77
2021/09/04 15:11:29;;;;;;;;;;;25.30;99.90;;;;;;20825472;28;20118;-80
2021/09/04 15:21:30;;;;;;;4.43;2.80;;;24.10;99.90;;;;;;20821874;28;19964;-80
2021/09/04 15:31:31;;;;;;;6.57;2.70;;;23.30;99.90;;;;;;20804458;28;20292;-77
2021/09/04 15:41:32;;;;;;;;;;;24.60;99.90;;;;;;20775100;28;20085;-79
2021/09/04 15:51:33;;;;;;;6.28;2.78;;;24.50;99.90;;;;;;20739789;28;19924;-78
2021/09/04 16:01:34;;;;;;;;;;;24.60;99.90;;;;;;20730235;28;20042;-79
2021/09/04 16:11:36;;;;;;;5.95;3.22;;;24.10;99.90;;;;;;20715806;28;20403;-77
2021/09/04 16:21:37;;;;;;;5.70;3.47;;;23.50;99.90;;;;;;20712816;28;20042;-80
2021/09/04 16:31:37;;;;;;;9.67;3.23;;;23.30;99.90;;;;;;20730501;28;20506;-78
2021/09/04 16:41:38;;;;;;;4.10;2.93;;;23.50;99.90;;;;;;20777214;28;20055;-80
2021/09/04 16:51:39;;;;;;;10.10;4.33;;;23.70;99.90;;;;;;20813985;28;20029;-82
2021/09/04 17:01:40;;;;;;;5.20;3.57;;;23.60;99.90;;;;;;20815470;28;20212;-79
2021/09/04 17:11:41;;;;;;;4.07;3.03;;;23.30;99.90;;;;;;20798278;28;20087;-79
2021/09/04 17:21:42;;;;;;;5.65;3.83;;;23.20;99.90;;;;;;20742785;28;20034;-78
2021/09/04 17:31:42;;;;;;;8.33;5.63;;;22.10;99.90;;;;;;20742155;28;20034;-77
2021/09/04 17:41:43;;;;;;;8.00;4.27;;;21.60;99.90;;;;;;20752848;28;20049;-78
2021/09/04 17:51:44;;;;;;;11.80;4.77;;;21.30;99.90;;;;;;20741761;28;20120;-79
2021/09/04 18:01:45;;;;;;;9.70;5.17;;;21.00;99.90;;;;;;20740364;28;20038;-80
2021/09/04 18:11:46;;;;;;;10.23;5.93;;;20.30;99.90;;;;;;20729362;28;20169;-79
2021/09/04 18:21:47;;;;;;;11.63;5.80;;;19.80;99.90;;;;;;20725788;28;20121;-79
2021/09/04 18:31:48;;;;;;;14.20;5.53;;;19.50;99.90;;;;;;20723022;28;20038;-78
2021/09/04 18:41:49;;;;;;;11.03;5.67;;;19.00;99.90;;;;;;20741836;28;20080;-79
2021/09/04 18:51:49;;;;;;;12.23;6.13;;;19.00;99.90;;;;;;20754062;28;20041;-79
2021/09/04 19:01:50;;;;;;;13.00;5.10;;;18.70;99.90;;;;;;20727006;28;20179;-79
2021/09/04 19:11:53;;;;;;;17.23;7.22;;;18.80;99.90;;;;;;20764541;28;20044;-79
2021/09/04 19:21:53;;;;;;;13.50;7.07;;;18.30;99.90;;;;;;20768368;28;20025;-78
2021/09/04 19:31:54;;;;;;;11.03;5.53;;;18.40;99.90;;;;;;20760664;28;20084;-77
2021/09/04 19:41:55;;;;;;;8.47;5.50;;;18.20;99.90;;;;;;20770671;28;20033;-78
2021/09/04 19:51:56;;;;;;;8.23;5.87;;;18.30;99.90;;;;;;20760859;28;20033;-76
2021/09/04 20:01:57;;;;;;;14.33;5.87;;;17.80;99.90;;;;;;20762507;28;20033;-79
2021/09/04 20:11:58;;;;;;;7.23;5.43;;;17.40;99.90;;;;;;20757833;28;20130;-78
2021/09/04 20:22:00;;;;;;;7.27;5.43;;;17.30;99.90;;;;;;20710490;28;20454;-78
2021/09/04 20:32:01;;;;;;;14.18;6.80;;;17.20;99.90;;;;;;20985201;22;20689;-77
2021/09/04 20:42:02;;;;;;;17.63;7.07;;;17.10;99.90;;;;;;20989730;28;20094;-78
2021/09/04 20:52:03;;;;;;;30.73;7.37;;;16.80;99.90;;;;;;20990556;28;20632;-79
2021/09/04 21:02:04;;;;;;;13.80;7.15;;;17.20;99.90;;;;;;20990821;28;20028;-78
2021/09/04 21:12:05;;;;;;;16.53;6.63;;;16.70;99.90;;;;;;21033465;28;20107;-78
2021/09/04 21:22:06;;;;;;;11.50;6.77;;;16.30;99.90;;;;;;21008241;28;20021;-78
2021/09/04 21:32:07;;;;;;;10.43;7.40;;;16.20;99.90;;;;;;21004005;28;20036;-78
2021/09/04 21:42:09;;;;;;;17.48;9.15;;;16.00;99.90;;;;;;20999658;28;20041;-78
2021/09/04 21:52:10;;;;;;;13.23;7.53;;;15.50;99.90;;;;;;20993386;28;20028;-78
2021/09/04 22:02:15;;;;;;;11.20;7.53;;;15.40;99.90;;;;;;20996900;28;20493;-79
2021/09/04 22:12:16;;;;;;;15.95;8.32;;;15.20;99.90;;;;;;21006050;28;20025;-77
2021/09/04 22:22:18;;;;;;;19.30;7.70;;;15.30;99.90;;;;;;21014130;28;20499;-79
2021/09/04 22:32:18;;;;;;;14.07;8.73;;;15.40;99.90;;;;;;21007229;28;20024;-79
2021/09/04 22:42:19;;;;;;;22.87;10.93;;;15.20;99.90;;;;;;21011078;28;20051;-79
2021/09/04 22:52:20;;;;;;;17.70;9.97;;;14.80;99.90;;;;;;21010130;28;20025;-80
2021/09/04 23:02:21;;;;;;;17.53;11.40;;;14.90;99.90;;;;;;21116596;28;20092;-79
2021/09/04 23:12:23;;;;;;;15.23;9.83;;;14.70;99.90;;;;;;21133462;28;20042;-79
2021/09/04 23:22:24;;;;;;;20.58;8.70;;;14.50;99.90;;;;;;21109555;28;20036;-78
2021/09/04 23:32:25;;;;;;;11.73;8.07;;;14.60;99.90;;;;;;21115906;28;20028;-79
2021/09/04 23:42:26;;;;;;;15.90;6.50;;;14.50;99.90;;;;;;21124823;28;20114;-78
2021/09/04 23:52:27;;;;;;;10.73;6.80;;;14.20;99.90;;;;;;21124844;28;20093;-78
